sensor_id;sensor_type;location;lat;lon;timestamp;pressure;altitude;pressure_sealevel;temperature;humidity
73645;BME280;61940;42.136;24.534;2022-07-04T00:02:24;99683.44;;;26.76;36.87
73645;BME280;61940;42.136;24.534;2022-07-04T00:04:51;99686.24;;;26.61;37.36
73645;BME280;61940;42.136;24.534;2022-07-04T00:07:17;99690.22;;;26.53;37.35
73645;BME280;61940;42.136;24.534;2022-07-04T00:09:43;99686.19;;;26.50;37.52
73645;BME280;61940;42.136;24.534;2022-07-04T00:12:09;99683.60;;;26.59;37.37
73645;BME280;61940;42.136;24.534;2022-07-04T00:14:36;99688.83;;;26.52;37.50
73645;BME280;61940;42.136;24.534;2022-07-04T00:17:03;99684.61;;;26.52;37.49
73645;BME280;61940;42.136;24.534;2022-07-04T00:19:29;99682.99;;;26.51;37.54
73645;BME280;61940;42.136;24.534;2022-07-04T00:21:55;99682.73;;;26.39;37.73
73645;BME280;61940;42.136;24.534;2022-07-04T00:24:21;99683.73;;;26.39;37.66
73645;BME280;61940;42.136;24.534;2022-07-04T00:26:48;99681.88;;;26.21;37.97
73645;BME280;61940;42.136;24.534;2022-07-04T00:29:14;99678.69;;;26.24;37.85
73645;BME280;61940;42.136;24.534;2022-07-04T00:31:40;99683.50;;;26.29;37.73
73645;BME280;61940;42.136;24.534;2022-07-04T00:34:06;99676.30;;;26.33;37.66
73645;BME280;61940;42.136;24.534;2022-07-04T00:36:32;99675.48;;;26.27;37.75
73645;BME280;61940;42.136;24.534;2022-07-04T00:38:59;99676.48;;;26.27;37.76
73645;BME280;61940;42.136;24.534;2022-07-04T00:41:25;99680.13;;;26.31;37.74
73645;BME280;61940;42.136;24.534;2022-07-04T00:46:23;99676.89;;;26.27;37.78
73645;BME280;61940;42.136;24.534;2022-07-04T00:48:49;99674.47;;;26.24;37.86
73645;BME280;61940;42.136;24.534;2022-07-04T00:51:15;99669.84;;;26.19;37.99
73645;BME280;61940;42.136;24.534;2022-07-04T00:53:42;99668.03;;;26.18;37.93
73645;BME280;61940;42.136;24.534;2022-07-04T00:56:08;99667.41;;;26.19;37.93
73645;BME280;61940;42.136;24.534;2022-07-04T00:58:34;99671.98;;;26.16;37.98
73645;BME280;61940;42.136;24.534;2022-07-04T01:01:00;99675.41;;;26.15;37.96
73645;BME280;61940;42.136;24.534;2022-07-04T01:03:26;99674.19;;;26.11;38.07
73645;BME280;61940;42.136;24.534;2022-07-04T01:05:53;99668.58;;;26.14;37.96
73645;BME280;61940;42.136;24.534;2022-07-04T01:08:19;99661.62;;;26.21;37.73
73645;BME280;61940;42.136;24.534;2022-07-04T01:10:45;99652.73;;;26.14;37.83
73645;BME280;61940;42.136;24.534;2022-07-04T01:15:43;99652.67;;;25.98;38.07
73645;BME280;61940;42.136;24.534;2022-07-04T01:18:10;99658.27;;;25.95;38.10
73645;BME280;61940;42.136;24.534;2022-07-04T01:20:36;99656.06;;;25.99;38.02
73645;BME280;61940;42.136;24.534;2022-07-04T01:23:02;99644.19;;;25.89;38.01
73645;BME280;61940;42.136;24.534;2022-07-04T01:25:28;99648.02;;;25.91;37.99
73645;BME280;61940;42.136;24.534;2022-07-04T01:27:54;99641.75;;;25.81;38.14
73645;BME280;61940;42.136;24.534;2022-07-04T01:30:21;99644.17;;;25.84;38.08
73645;BME280;61940;42.136;24.534;2022-07-04T01:32:47;99638.36;;;25.85;38.02
73645;BME280;61940;42.136;24.534;2022-07-04T01:35:13;99643.34;;;25.80;38.11
73645;BME280;61940;42.136;24.534;2022-07-04T01:37:39;99637.77;;;25.85;37.97
73645;BME280;61940;42.136;24.534;2022-07-04T01:40:06;99630.49;;;25.79;38.06
73645;BME280;61940;42.136;24.534;2022-07-04T01:42:32;99627.07;;;25.76;38.15
73645;BME280;61940;42.136;24.534;2022-07-04T01:44:58;99626.89;;;25.75;38.13
73645;BME280;61940;42.136;24.534;2022-07-04T01:47:24;99625.45;;;25.73;38.18
73645;BME280;61940;42.136;24.534;2022-07-04T01:49:50;99630.27;;;25.71;38.26
73645;BME280;61940;42.136;24.534;2022-07-04T01:52:17;99629.27;;;25.73;38.22
73645;BME280;61940;42.136;24.534;2022-07-04T01:54:43;99636.47;;;25.70;38.30
73645;BME280;61940;42.136;24.534;2022-07-04T01:57:09;99630.27;;;25.73;38.31
73645;BME280;61940;42.136;24.534;2022-07-04T01:59:35;99636.09;;;25.74;38.29
73645;BME280;61940;42.136;24.534;2022-07-04T02:02:07;99632.88;;;25.71;38.40
73645;BME280;61940;42.136;24.534;2022-07-04T02:04:33;99637.08;;;25.68;38.46
73645;BME280;61940;42.136;24.534;2022-07-04T02:06:59;99641.47;;;25.69;38.54
73645;BME280;61940;42.136;24.534;2022-07-04T02:09:26;99648.70;;;25.68;38.58
73645;BME280;61940;42.136;24.534;2022-07-04T02:11:52;99639.88;;;25.70;38.66
73645;BME280;61940;42.136;24.534;2022-07-04T02:14:24;99639.85;;;25.66;38.78
73645;BME280;61940;42.136;24.534;2022-07-04T02:16:50;99646.25;;;25.63;38.85
73645;BME280;61940;42.136;24.534;2022-07-04T02:19:16;99643.66;;;25.64;38.79
73645;BME280;61940;42.136;24.534;2022-07-04T02:21:42;99647.46;;;25.66;38.71
73645;BME280;61940;42.136;24.534;2022-07-04T02:24:08;99644.48;;;25.70;38.59
73645;BME280;61940;42.136;24.534;2022-07-04T02:26:35;99654.70;;;25.65;38.73
73645;BME280;61940;42.136;24.534;2022-07-04T02:29:01;99654.45;;;25.62;38.80
73645;BME280;61940;42.136;24.534;2022-07-04T02:31:27;99658.64;;;25.59;38.93
73645;BME280;61940;42.136;24.534;2022-07-04T02:33:53;99659.43;;;25.54;39.11
73645;BME280;61940;42.136;24.534;2022-07-04T02:36:19;99661.77;;;25.48;39.29
73645;BME280;61940;42.136;24.534;2022-07-04T02:38:46;99670.95;;;25.44;39.38
73645;BME280;61940;42.136;24.534;2022-07-04T02:41:12;99670.35;;;25.44;39.38
73645;BME280;61940;42.136;24.534;2022-07-04T02:43:38;99670.16;;;25.45;39.43
73645;BME280;61940;42.136;24.534;2022-07-04T02:46:04;99677.77;;;25.46;39.52
73645;BME280;61940;42.136;24.534;2022-07-04T02:48:30;99679.95;;;25.43;39.60
73645;BME280;61940;42.136;24.534;2022-07-04T02:50:56;99677.96;;;25.42;39.76
73645;BME280;61940;42.136;24.534;2022-07-04T02:53:23;99683.57;;;25.42;39.78
73645;BME280;61940;42.136;24.534;2022-07-04T02:55:49;99684.91;;;25.35;40.01
73645;BME280;61940;42.136;24.534;2022-07-04T02:58:16;99691.93;;;25.36;40.06
73645;BME280;61940;42.136;24.534;2022-07-04T03:00:42;99691.09;;;25.32;40.20
73645;BME280;61940;42.136;24.534;2022-07-04T03:03:09;99675.57;;;25.22;40.34
73645;BME280;61940;42.136;24.534;2022-07-04T03:05:35;99698.10;;;25.32;40.47
73645;BME280;61940;42.136;24.534;2022-07-04T03:08:05;99693.08;;;25.28;40.67
73645;BME280;61940;42.136;24.534;2022-07-04T03:10:31;99695.92;;;25.35;40.69
73645;BME280;61940;42.136;24.534;2022-07-04T03:12:58;99695.72;;;25.56;40.22
73645;BME280;61940;42.136;24.534;2022-07-04T03:15:24;99699.62;;;25.72;39.94
73645;BME280;61940;42.136;24.534;2022-07-04T03:17:50;99700.72;;;25.86;39.54
73645;BME280;61940;42.136;24.534;2022-07-04T03:20:16;99698.50;;;25.84;39.65
73645;BME280;61940;42.136;24.534;2022-07-04T03:22:42;99699.41;;;25.98;39.32
73645;BME280;61940;42.136;24.534;2022-07-04T03:25:09;99697.64;;;26.12;38.86
73645;BME280;61940;42.136;24.534;2022-07-04T03:27:35;99697.55;;;26.22;38.61
73645;BME280;61940;42.136;24.534;2022-07-04T03:30:01;99695.05;;;26.51;37.97
73645;BME280;61940;42.136;24.534;2022-07-04T03:32:27;99688.65;;;26.67;37.54
73645;BME280;61940;42.136;24.534;2022-07-04T03:34:53;99689.88;;;26.80;37.25
73645;BME280;61940;42.136;24.534;2022-07-04T03:37:20;99699.40;;;26.95;36.85
73645;BME280;61940;42.136;24.534;2022-07-04T03:39:46;99691.78;;;27.12;36.47
73645;BME280;61940;42.136;24.534;2022-07-04T03:42:12;99688.34;;;27.39;35.85
73645;BME280;61940;42.136;24.534;2022-07-04T03:44:38;99689.78;;;27.55;35.53
73645;BME280;61940;42.136;24.534;2022-07-04T03:47:04;99690.98;;;27.54;35.52
73645;BME280;61940;42.136;24.534;2022-07-04T03:49:31;99680.10;;;27.66;35.27
73645;BME280;61940;42.136;24.534;2022-07-04T03:51:57;99681.86;;;27.89;34.92
73645;BME280;61940;42.136;24.534;2022-07-04T03:54:23;99678.59;;;28.14;34.40
73645;BME280;61940;42.136;24.534;2022-07-04T03:56:49;99684.30;;;28.49;33.91
73645;BME280;61940;42.136;24.534;2022-07-04T03:59:15;99686.81;;;28.63;33.80
73645;BME280;61940;42.136;24.534;2022-07-04T04:01:42;99684.08;;;28.86;33.39
73645;BME280;61940;42.136;24.534;2022-07-04T04:04:08;99683.13;;;29.06;33.12
73645;BME280;61940;42.136;24.534;2022-07-04T04:06:40;99686.45;;;29.46;32.45
73645;BME280;61940;42.136;24.534;2022-07-04T04:09:06;99688.55;;;29.60;32.42
73645;BME280;61940;42.136;24.534;2022-07-04T04:11:32;99684.51;;;29.82;32.26
73645;BME280;61940;42.136;24.534;2022-07-04T04:13:58;99680.17;;;30.09;31.64
73645;BME280;61940;42.136;24.534;2022-07-04T04:16:24;99682.22;;;30.39;31.22
73645;BME280;61940;42.136;24.534;2022-07-04T04:18:51;99682.63;;;30.72;30.65
73645;BME280;61940;42.136;24.534;2022-07-04T04:21:17;99683.55;;;30.92;30.52
73645;BME280;61940;42.136;24.534;2022-07-04T04:23:43;99681.69;;;31.22;30.00
73645;BME280;61940;42.136;24.534;2022-07-04T04:26:09;99689.31;;;31.36;29.78
73645;BME280;61940;42.136;24.534;2022-07-04T04:28:35;99677.78;;;31.49;29.82
73645;BME280;61940;42.136;24.534;2022-07-04T04:31:01;99680.56;;;31.64;29.51
73645;BME280;61940;42.136;24.534;2022-07-04T04:33:28;99676.56;;;31.93;29.09
73645;BME280;61940;42.136;24.534;2022-07-04T04:35:54;99684.32;;;32.00;29.07
73645;BME280;61940;42.136;24.534;2022-07-04T04:38:20;99684.00;;;32.18;28.75
73645;BME280;61940;42.136;24.534;2022-07-04T04:40:46;99682.16;;;32.47;28.39
73645;BME280;61940;42.136;24.534;2022-07-04T04:43:12;99685.70;;;32.81;27.90
73645;BME280;61940;42.136;24.534;2022-07-04T04:45:39;99684.67;;;32.99;27.61
73645;BME280;61940;42.136;24.534;2022-07-04T04:48:05;99692.77;;;32.73;27.96
73645;BME280;61940;42.136;24.534;2022-07-04T04:50:31;99692.09;;;32.93;27.62
73645;BME280;61940;42.136;24.534;2022-07-04T04:52:57;99690.65;;;33.21;27.23
73645;BME280;61940;42.136;24.534;2022-07-04T04:55:23;99683.84;;;32.90;27.62
73645;BME280;61940;42.136;24.534;2022-07-04T04:57:50;99679.14;;;33.10;27.34
73645;BME280;61940;42.136;24.534;2022-07-04T05:00:16;99685.25;;;33.43;26.81
73645;BME280;61940;42.136;24.534;2022-07-04T05:02:42;99687.06;;;33.35;26.95
73645;BME280;61940;42.136;24.534;2022-07-04T05:05:08;99686.70;;;33.65;26.53
73645;BME280;61940;42.136;24.534;2022-07-04T05:07:35;99685.25;;;33.43;26.81
73645;BME280;61940;42.136;24.534;2022-07-04T05:10:01;99687.00;;;33.36;26.94
73645;BME280;61940;42.136;24.534;2022-07-04T05:12:27;99684.02;;;33.82;26.32
73645;BME280;61940;42.136;24.534;2022-07-04T05:14:53;99682.38;;;34.04;26.00
73645;BME280;61940;42.136;24.534;2022-07-04T05:17:19;99686.41;;;34.27;25.73
73645;BME280;61940;42.136;24.534;2022-07-04T05:19:46;99680.23;;;34.57;25.38
73645;BME280;61940;42.136;24.534;2022-07-04T05:22:12;99683.37;;;34.75;25.12
73645;BME280;61940;42.136;24.534;2022-07-04T05:24:38;99680.50;;;35.07;24.65
73645;BME280;61940;42.136;24.534;2022-07-04T05:27:05;99676.38;;;35.22;24.46
73645;BME280;61940;42.136;24.534;2022-07-04T05:29:31;99674.92;;;35.41;24.32
73645;BME280;61940;42.136;24.534;2022-07-04T05:31:57;99677.95;;;35.04;24.74
73645;BME280;61940;42.136;24.534;2022-07-04T05:34:23;99672.38;;;35.69;23.96
73645;BME280;61940;42.136;24.534;2022-07-04T05:36:49;99676.14;;;35.76;23.82
73645;BME280;61940;42.136;24.534;2022-07-04T05:39:15;99677.20;;;35.76;23.76
73645;BME280;61940;42.136;24.534;2022-07-04T05:41:42;99673.95;;;35.57;24.06
73645;BME280;61940;42.136;24.534;2022-07-04T05:44:08;99674.58;;;35.46;24.17
73645;BME280;61940;42.136;24.534;2022-07-04T05:46:34;99670.84;;;36.11;23.40
73645;BME280;61940;42.136;24.534;2022-07-04T05:49:00;99663.90;;;36.23;23.22
73645;BME280;61940;42.136;24.534;2022-07-04T05:51:27;99668.19;;;36.75;22.65
73645;BME280;61940;42.136;24.534;2022-07-04T05:53:53;99669.55;;;36.66;22.63
73645;BME280;61940;42.136;24.534;2022-07-04T05:56:19;99667.56;;;36.96;22.26
73645;BME280;61940;42.136;24.534;2022-07-04T05:58:46;99668.16;;;37.22;21.86
73645;BME280;61940;42.136;24.534;2022-07-04T06:01:12;99667.92;;;37.22;21.52
73645;BME280;61940;42.136;24.534;2022-07-04T06:03:38;99672.87;;;37.40;21.59
73645;BME280;61940;42.136;24.534;2022-07-04T06:06:04;99673.34;;;37.34;21.76
73645;BME280;61940;42.136;24.534;2022-07-04T06:08:30;99663.06;;;37.21;21.78
73645;BME280;61940;42.136;24.534;2022-07-04T06:10:57;99663.75;;;37.43;21.64
73645;BME280;61940;42.136;24.534;2022-07-04T06:13:23;99662.30;;;37.77;21.13
73645;BME280;61940;42.136;24.534;2022-07-04T06:15:49;99673.08;;;37.50;20.92
73645;BME280;61940;42.136;24.534;2022-07-04T06:18:15;99667.07;;;37.37;21.10
73645;BME280;61940;42.136;24.534;2022-07-04T06:20:42;99659.51;;;37.57;20.03
73645;BME280;61940;42.136;24.534;2022-07-04T06:23:08;99661.60;;;37.66;20.29
73645;BME280;61940;42.136;24.534;2022-07-04T06:25:34;99657.72;;;37.79;20.12
73645;BME280;61940;42.136;24.534;2022-07-04T06:28:00;99664.25;;;37.98;20.02
73645;BME280;61940;42.136;24.534;2022-07-04T06:30:27;99664.27;;;38.03;19.50
73645;BME280;61940;42.136;24.534;2022-07-04T06:32:54;99658.23;;;37.96;19.88
73645;BME280;61940;42.136;24.534;2022-07-04T06:35:20;99656.00;;;37.96;19.79
73645;BME280;61940;42.136;24.534;2022-07-04T06:37:51;99656.13;;;37.36;19.80
73645;BME280;61940;42.136;24.534;2022-07-04T06:40:17;99655.22;;;38.43;19.41
73645;BME280;61940;42.136;24.534;2022-07-04T06:42:43;99647.77;;;38.28;19.31
73645;BME280;61940;42.136;24.534;2022-07-04T06:45:10;99646.52;;;39.17;18.18
73645;BME280;61940;42.136;24.534;2022-07-04T06:47:36;99647.69;;;39.51;18.31
73645;BME280;61940;42.136;24.534;2022-07-04T06:50:03;99647.46;;;39.75;18.02
73645;BME280;61940;42.136;24.534;2022-07-04T06:52:30;99647.34;;;39.46;18.38
73645;BME280;61940;42.136;24.534;2022-07-04T06:54:57;99633.42;;;39.42;18.51
73645;BME280;61940;42.136;24.534;2022-07-04T06:57:23;99641.85;;;39.88;17.95
73645;BME280;61940;42.136;24.534;2022-07-04T06:59:53;99629.44;;;39.94;17.98
73645;BME280;61940;42.136;24.534;2022-07-04T07:02:20;99636.45;;;40.17;17.74
73645;BME280;61940;42.136;24.534;2022-07-04T07:04:46;99629.22;;;40.58;17.33
73645;BME280;61940;42.136;24.534;2022-07-04T07:07:12;99631.62;;;40.18;17.50
73645;BME280;61940;42.136;24.534;2022-07-04T07:09:39;99625.67;;;39.88;17.48
73645;BME280;61940;42.136;24.534;2022-07-04T07:12:05;99625.29;;;39.95;17.98
73645;BME280;61940;42.136;24.534;2022-07-04T07:14:32;99622.32;;;40.38;17.46
73645;BME280;61940;42.136;24.534;2022-07-04T07:16:58;99615.69;;;40.68;16.98
73645;BME280;61940;42.136;24.534;2022-07-04T07:19:24;99611.67;;;41.20;16.63
73645;BME280;61940;42.136;24.534;2022-07-04T07:21:50;99614.80;;;40.87;17.00
73645;BME280;61940;42.136;24.534;2022-07-04T07:24:16;99620.45;;;40.49;16.75
73645;BME280;61940;42.136;24.534;2022-07-04T07:26:43;99610.16;;;40.57;16.95
73645;BME280;61940;42.136;24.534;2022-07-04T07:29:09;99611.08;;;40.44;17.31
73645;BME280;61940;42.136;24.534;2022-07-04T07:31:35;99602.90;;;41.19;16.51
73645;BME280;61940;42.136;24.534;2022-07-04T07:34:01;99600.79;;;40.84;17.07
73645;BME280;61940;42.136;24.534;2022-07-04T07:36:27;99601.74;;;40.86;16.94
73645;BME280;61940;42.136;24.534;2022-07-04T07:38:54;99597.77;;;40.66;17.43
73645;BME280;61940;42.136;24.534;2022-07-04T07:41:20;99598.31;;;40.85;17.35
73645;BME280;61940;42.136;24.534;2022-07-04T07:43:46;99593.55;;;40.64;17.72
73645;BME280;61940;42.136;24.534;2022-07-04T07:46:12;99594.06;;;40.63;17.72
73645;BME280;61940;42.136;24.534;2022-07-04T07:48:39;99593.50;;;41.11;17.55
73645;BME280;61940;42.136;24.534;2022-07-04T07:51:05;99593.53;;;41.14;17.10
73645;BME280;61940;42.136;24.534;2022-07-04T07:53:31;99586.66;;;40.98;17.43
73645;BME280;61940;42.136;24.534;2022-07-04T07:55:57;99593.03;;;41.40;17.18
73645;BME280;61940;42.136;24.534;2022-07-04T07:58:23;99587.58;;;41.78;16.79
73645;BME280;61940;42.136;24.534;2022-07-04T08:00:50;99586.87;;;42.32;16.35
73645;BME280;61940;42.136;24.534;2022-07-04T08:03:16;99578.20;;;42.97;15.83
73645;BME280;61940;42.136;24.534;2022-07-04T08:05:48;99576.86;;;43.32;15.47
73645;BME280;61940;42.136;24.534;2022-07-04T08:08:14;99580.08;;;43.40;15.41
73645;BME280;61940;42.136;24.534;2022-07-04T08:10:40;99582.39;;;42.31;16.17
73645;BME280;61940;42.136;24.534;2022-07-04T08:13:06;99572.92;;;41.86;16.51
73645;BME280;61940;42.136;24.534;2022-07-04T08:15:33;99568.02;;;41.72;16.90
73645;BME280;61940;42.136;24.534;2022-07-04T08:20:31;99562.91;;;41.11;17.36
73645;BME280;61940;42.136;24.534;2022-07-04T08:22:58;99566.41;;;41.28;17.22
73645;BME280;61940;42.136;24.534;2022-07-04T08:25:24;99568.14;;;40.67;17.63
73645;BME280;61940;42.136;24.534;2022-07-04T08:27:50;99575.16;;;41.16;17.65
73645;BME280;61940;42.136;24.534;2022-07-04T08:30:16;99567.63;;;41.72;16.77
73645;BME280;61940;42.136;24.534;2022-07-04T08:32:43;99568.75;;;42.26;16.47
73645;BME280;61940;42.136;24.534;2022-07-04T08:35:09;99570.40;;;42.35;16.31
73645;BME280;61940;42.136;24.534;2022-07-04T08:37:35;99570.48;;;42.77;15.59
73645;BME280;61940;42.136;24.534;2022-07-04T08:40:02;99570.23;;;43.42;15.23
73645;BME280;61940;42.136;24.534;2022-07-04T08:42:28;99568.22;;;42.90;15.27
73645;BME280;61940;42.136;24.534;2022-07-04T08:44:54;99569.33;;;42.79;15.92
73645;BME280;61940;42.136;24.534;2022-07-04T08:47:22;99567.06;;;43.75;14.24
73645;BME280;61940;42.136;24.534;2022-07-04T08:49:58;99564.53;;;42.68;15.57
73645;BME280;61940;42.136;24.534;2022-07-04T08:52:27;99564.48;;;42.60;15.45
73645;BME280;61940;42.136;24.534;2022-07-04T08:54:49;99564.53;;;43.34;15.24
73645;BME280;61940;42.136;24.534;2022-07-04T08:57:21;99556.48;;;41.69;15.71
73645;BME280;61940;42.136;24.534;2022-07-04T08:59:53;99556.56;;;41.77;15.85
73645;BME280;61940;42.136;24.534;2022-07-04T09:02:19;99561.83;;;42.18;15.55
73645;BME280;61940;42.136;24.534;2022-07-04T09:04:46;99553.91;;;42.35;15.93
73645;BME280;61940;42.136;24.534;2022-07-04T09:07:12;99550.50;;;42.37;15.54
73645;BME280;61940;42.136;24.534;2022-07-04T09:09:40;99551.95;;;42.53;16.27
73645;BME280;61940;42.136;24.534;2022-07-04T09:12:05;99554.22;;;42.59;15.50
73645;BME280;61940;42.136;24.534;2022-07-04T09:14:32;99551.84;;;42.57;15.30
73645;BME280;61940;42.136;24.534;2022-07-04T09:16:58;99547.10;;;42.55;15.63
73645;BME280;61940;42.136;24.534;2022-07-04T09:19:24;99542.64;;;43.03;14.44
73645;BME280;61940;42.136;24.534;2022-07-04T09:21:51;99542.53;;;42.71;15.25
73645;BME280;61940;42.136;24.534;2022-07-04T09:24:40;99543.19;;;41.74;13.67
73645;BME280;61940;42.136;24.534;2022-07-04T09:26:44;99536.41;;;41.65;13.96
73645;BME280;61940;42.136;24.534;2022-07-04T09:29:10;99539.08;;;41.91;13.97
73645;BME280;61940;42.136;24.534;2022-07-04T09:31:37;99535.19;;;41.48;13.10
73645;BME280;61940;42.136;24.534;2022-07-04T09:34:03;99540.63;;;39.30;13.03
73645;BME280;61940;42.136;24.534;2022-07-04T09:36:30;99544.72;;;39.84;16.81
73645;BME280;61940;42.136;24.534;2022-07-04T09:41:28;99531.25;;;40.98;13.86
73645;BME280;61940;42.136;24.534;2022-07-04T09:43:59;99532.12;;;41.24;13.27
73645;BME280;61940;42.136;24.534;2022-07-04T09:46:24;99528.77;;;40.81;14.94
73645;BME280;61940;42.136;24.534;2022-07-04T09:48:50;99536.17;;;40.38;15.50
73645;BME280;61940;42.136;24.534;2022-07-04T09:51:35;99535.30;;;38.62;15.35
73645;BME280;61940;42.136;24.534;2022-07-04T09:54:16;99527.69;;;38.08;16.79
73645;BME280;61940;42.136;24.534;2022-07-04T09:56:42;99535.31;;;37.58;17.79
73645;BME280;61940;42.136;24.534;2022-07-04T09:59:08;99532.97;;;37.18;17.86
73645;BME280;61940;42.136;24.534;2022-07-04T10:01:34;99529.99;;;36.68;17.73
73645;BME280;61940;42.136;24.534;2022-07-04T10:04:01;99531.09;;;36.05;17.94
73645;BME280;61940;42.136;24.534;2022-07-04T10:06:30;99528.50;;;35.71;17.82
73645;BME280;61940;42.136;24.534;2022-07-04T10:08:54;99527.47;;;35.54;19.75
73645;BME280;61940;42.136;24.534;2022-07-04T10:11:20;99531.30;;;35.50;19.74
73645;BME280;61940;42.136;24.534;2022-07-04T10:13:46;99529.20;;;34.94;20.59
73645;BME280;61940;42.136;24.534;2022-07-04T10:16:15;99521.66;;;34.58;21.29
73645;BME280;61940;42.136;24.534;2022-07-04T10:18:39;99522.45;;;34.27;21.33
73645;BME280;61940;42.136;24.534;2022-07-04T10:21:05;99521.94;;;33.70;22.03
73645;BME280;61940;42.136;24.534;2022-07-04T10:23:31;99517.58;;;33.59;20.97
73645;BME280;61940;42.136;24.534;2022-07-04T10:26:01;99516.91;;;33.32;21.46
73645;BME280;61940;42.136;24.534;2022-07-04T10:28:27;99511.00;;;32.86;22.51
73645;BME280;61940;42.136;24.534;2022-07-04T10:30:56;99512.64;;;33.02;22.36
73645;BME280;61940;42.136;24.534;2022-07-04T10:33:22;99505.18;;;33.00;21.51
73645;BME280;61940;42.136;24.534;2022-07-04T10:35:49;99502.55;;;32.84;22.57
73645;BME280;61940;42.136;24.534;2022-07-04T10:38:15;99499.91;;;33.00;23.36
73645;BME280;61940;42.136;24.534;2022-07-04T10:40:42;99500.05;;;33.11;22.30
73645;BME280;61940;42.136;24.534;2022-07-04T10:45:40;99495.02;;;33.17;21.43
73645;BME280;61940;42.136;24.534;2022-07-04T10:48:08;99492.78;;;33.24;22.67
73645;BME280;61940;42.136;24.534;2022-07-04T10:50:33;99488.34;;;33.24;22.50
73645;BME280;61940;42.136;24.534;2022-07-04T10:55:31;99487.06;;;33.47;21.52
73645;BME280;61940;42.136;24.534;2022-07-04T10:57:57;99481.55;;;33.27;20.20
73645;BME280;61940;42.136;24.534;2022-07-04T11:00:24;99474.52;;;33.17;20.47
73645;BME280;61940;42.136;24.534;2022-07-04T11:02:50;99483.96;;;33.20;21.77
73645;BME280;61940;42.136;24.534;2022-07-04T11:05:16;99483.23;;;33.32;20.47
73645;BME280;61940;42.136;24.534;2022-07-04T11:10:24;99475.87;;;33.41;20.83
73645;BME280;61940;42.136;24.534;2022-07-04T11:13:05;99475.45;;;33.35;21.34
73645;BME280;61940;42.136;24.534;2022-07-04T11:16:03;99473.53;;;33.38;22.27
73645;BME280;61940;42.136;24.534;2022-07-04T11:18:12;99466.83;;;33.24;21.87
73645;BME280;61940;42.136;24.534;2022-07-04T11:20:42;99467.58;;;33.12;23.15
73645;BME280;61940;42.136;24.534;2022-07-04T11:23:11;99468.85;;;33.31;22.27
73645;BME280;61940;42.136;24.534;2022-07-04T11:25:37;99467.69;;;33.43;22.98
73645;BME280;61940;42.136;24.534;2022-07-04T11:30:35;99453.63;;;33.73;21.56
73645;BME280;61940;42.136;24.534;2022-07-04T11:33:01;99456.53;;;33.65;23.08
73645;BME280;61940;42.136;24.534;2022-07-04T11:35:27;99457.23;;;33.69;22.80
73645;BME280;61940;42.136;24.534;2022-07-04T11:37:56;99451.48;;;33.83;23.58
73645;BME280;61940;42.136;24.534;2022-07-04T11:40:22;99448.09;;;33.76;22.67
73645;BME280;61940;42.136;24.534;2022-07-04T11:45:32;99448.70;;;33.75;23.11
73645;BME280;61940;42.136;24.534;2022-07-04T11:47:58;99450.38;;;33.67;23.52
73645;BME280;61940;42.136;24.534;2022-07-04T11:50:24;99448.11;;;33.61;23.73
73645;BME280;61940;42.136;24.534;2022-07-04T11:52:50;99448.56;;;33.66;23.68
73645;BME280;61940;42.136;24.534;2022-07-04T11:55:17;99447.21;;;33.71;22.82
73645;BME280;61940;42.136;24.534;2022-07-04T11:57:45;99445.61;;;33.76;23.72
73645;BME280;61940;42.136;24.534;2022-07-04T12:00:12;99448.20;;;33.91;23.72
73645;BME280;61940;42.136;24.534;2022-07-04T12:02:38;99439.67;;;34.10;23.80
73645;BME280;61940;42.136;24.534;2022-07-04T12:05:07;99436.00;;;34.24;23.72
73645;BME280;61940;42.136;24.534;2022-07-04T12:07:31;99434.36;;;34.25;23.34
73645;BME280;61940;42.136;24.534;2022-07-04T12:10:06;99436.92;;;34.51;22.39
73645;BME280;61940;42.136;24.534;2022-07-04T12:12:24;99434.17;;;34.24;23.08
73645;BME280;61940;42.136;24.534;2022-07-04T12:14:56;99430.38;;;34.22;21.81
73645;BME280;61940;42.136;24.534;2022-07-04T12:17:21;99419.99;;;33.97;24.39
73645;BME280;61940;42.136;24.534;2022-07-04T12:19:49;99426.95;;;34.02;23.99
73645;BME280;61940;42.136;24.534;2022-07-04T12:22:32;99427.08;;;34.18;23.80
73645;BME280;61940;42.136;24.534;2022-07-04T12:24:57;99426.77;;;34.07;22.77
73645;BME280;61940;42.136;24.534;2022-07-04T12:27:23;99424.33;;;33.89;23.21
73645;BME280;61940;42.136;24.534;2022-07-04T12:29:49;99420.62;;;33.77;23.91
73645;BME280;61940;42.136;24.534;2022-07-04T12:32:15;99420.39;;;33.97;24.14
73645;BME280;61940;42.136;24.534;2022-07-04T12:34:42;99421.39;;;34.18;24.38
73645;BME280;61940;42.136;24.534;2022-07-04T12:37:10;99418.58;;;34.35;23.91
73645;BME280;61940;42.136;24.534;2022-07-04T12:39:36;99414.28;;;34.47;23.99
73645;BME280;61940;42.136;24.534;2022-07-04T12:42:08;99413.86;;;34.42;22.71
73645;BME280;61940;42.136;24.534;2022-07-04T12:44:33;99416.02;;;34.20;22.74
73645;BME280;61940;42.136;24.534;2022-07-04T12:47:00;99403.06;;;34.06;23.19
73645;BME280;61940;42.136;24.534;2022-07-04T12:49:26;99408.17;;;34.11;24.02
73645;BME280;61940;42.136;24.534;2022-07-04T12:51:52;99406.13;;;34.24;24.16
73645;BME280;61940;42.136;24.534;2022-07-04T12:54:18;99399.77;;;34.33;24.51
73645;BME280;61940;42.136;24.534;2022-07-04T12:56:45;99392.43;;;34.21;24.21
73645;BME280;61940;42.136;24.534;2022-07-04T12:59:11;99390.55;;;34.29;23.94
73645;BME280;61940;42.136;24.534;2022-07-04T13:01:37;99386.67;;;34.46;24.16
73645;BME280;61940;42.136;24.534;2022-07-04T13:04:04;99385.59;;;34.54;23.88
73645;BME280;61940;42.136;24.534;2022-07-04T13:06:31;99385.92;;;34.39;23.81
73645;BME280;61940;42.136;24.534;2022-07-04T13:08:57;99388.67;;;34.24;24.38
73645;BME280;61940;42.136;24.534;2022-07-04T13:11:23;99383.05;;;34.22;24.50